createdAt,value
2023-03-27T00:01:18.591Z,99231.41
2023-03-27T00:04:09.112Z,99242.91
2023-03-27T00:06:59.534Z,99252.16
2023-03-27T00:09:49.447Z,99249.28
2023-03-27T00:12:39.123Z,99253.38
2023-03-27T00:15:27.624Z,99270.44
2023-03-27T00:18:16.125Z,99269.19
2023-03-27T00:21:05.098Z,99231.22
2023-03-27T00:23:54.494Z,99285.19
2023-03-27T00:26:44.541Z,99293.19
2023-03-27T00:29:33.300Z,99301.00
2023-03-27T00:32:21.867Z,99310.41
2023-03-27T00:35:12.240Z,99319.06
2023-03-27T00:38:01.083Z,99329.06
2023-03-27T00:40:50.759Z,99328.69
2023-03-27T00:43:43.742Z,99253.47
2023-03-27T00:46:38.962Z,99344.25
2023-03-27T00:49:30.659Z,99357.94
2023-03-27T00:52:21.366Z,99365.59
2023-03-27T00:55:14.182Z,99368.66
2023-03-27T00:58:06.399Z,99362.50
2023-03-27T01:00:57.558Z,99372.09
2023-03-27T01:03:47.859Z,99376.22
2023-03-27T01:06:37.164Z,99386.44
2023-03-27T01:09:27.222Z,99382.13
2023-03-27T01:12:23.377Z,99390.38
2023-03-27T01:15:23.673Z,99397.75
2023-03-27T01:18:26.674Z,99417.19
2023-03-27T01:21:54.829Z,99410.69
2023-03-27T01:25:08.942Z,99430.31
2023-03-27T01:28:17.838Z,99424.88
2023-03-27T01:31:16.538Z,99438.84
2023-03-27T01:34:22.643Z,99444.75
2023-03-27T01:37:28.625Z,99445.44
2023-03-27T01:40:20.651Z,99460.59
2023-03-27T01:43:12.774Z,99449.28
2023-03-27T01:46:07.902Z,99480.41
2023-03-27T01:48:59.224Z,99474.88
2023-03-27T01:51:50.766Z,99497.16
2023-03-27T01:54:41.149Z,99501.91
2023-03-27T01:57:34.198Z,99507.19
2023-03-27T02:00:24.788Z,99517.59
2023-03-27T02:03:16.999Z,99525.00
2023-03-27T02:06:08.622Z,99491.50
2023-03-27T02:09:01.127Z,99538.34
2023-03-27T02:11:52.931Z,99545.63
2023-03-27T02:14:46.466Z,99547.34
2023-03-27T02:17:38.584Z,99560.72
2023-03-27T02:20:27.114Z,99567.50
2023-03-27T02:23:15.587Z,99581.75
2023-03-27T02:26:04.252Z,99584.25
2023-03-27T02:29:12.585Z,99587.19
2023-03-27T02:32:12.655Z,99601.81
2023-03-27T02:35:12.560Z,99601.72
2023-03-27T02:38:09.606Z,99498.63
2023-03-27T02:41:06.763Z,99622.59
2023-03-27T02:44:01.637Z,99628.16
2023-03-27T02:46:53.932Z,99634.16
2023-03-27T02:49:46.691Z,99639.38
2023-03-27T02:52:37.396Z,99649.88
2023-03-27T02:55:27.719Z,99652.34
2023-03-27T02:58:19.749Z,99655.84
2023-03-27T03:01:10.699Z,99667.41
2023-03-27T03:04:01.318Z,99672.00
2023-03-27T03:06:51.237Z,99678.19
2023-03-27T03:09:40.288Z,99691.31
2023-03-27T03:12:29.602Z,99696.19
2023-03-27T03:15:19.125Z,99717.19
2023-03-27T03:18:09.154Z,99716.25
2023-03-27T03:20:57.824Z,99722.47
2023-03-27T03:23:58.075Z,99737.69
2023-03-27T03:26:50.093Z,99749.78
2023-03-27T03:29:38.546Z,99773.13
2023-03-27T03:32:27.463Z,99780.75
2023-03-27T03:35:16.095Z,99787.13
2023-03-27T03:38:04.739Z,99792.66
2023-03-27T03:40:56.118Z,99803.78
2023-03-27T03:43:44.765Z,99815.94
2023-03-27T03:46:33.302Z,99816.66
2023-03-27T03:49:21.866Z,99830.66
2023-03-27T03:52:10.911Z,99844.13
2023-03-27T03:54:59.419Z,99850.22
2023-03-27T03:57:50.147Z,99866.53
2023-03-27T04:00:39.732Z,99867.69
2023-03-27T04:03:32.296Z,99881.47
2023-03-27T04:06:21.608Z,99888.13
2023-03-27T04:09:11.084Z,99897.25
2023-03-27T04:11:59.594Z,99902.09
2023-03-27T04:14:49.719Z,99907.41
2023-03-27T04:17:39.670Z,99909.41
2023-03-27T04:20:28.227Z,99914.22
2023-03-27T04:23:18.539Z,99920.69
2023-03-27T04:26:07.583Z,99922.69
2023-03-27T04:28:56.111Z,99931.50
2023-03-27T04:31:46.538Z,99938.59
2023-03-27T04:34:38.304Z,99934.66
2023-03-27T04:37:27.072Z,99956.88
2023-03-27T04:40:17.940Z,99967.16
2023-03-27T04:43:07.667Z,99978.63
2023-03-27T04:45:56.762Z,99980.09
2023-03-27T04:48:46.865Z,99985.41
2023-03-27T04:51:35.380Z,99984.59
2023-03-27T04:54:23.895Z,100008.63
2023-03-27T04:57:12.508Z,100013.63
2023-03-27T05:00:01.828Z,99993.03
2023-03-27T05:02:53.729Z,100025.53
2023-03-27T05:05:43.563Z,100030.50
2023-03-27T05:08:32.608Z,100040.81
2023-03-27T05:11:21.265Z,100049.94
2023-03-27T05:14:09.725Z,100055.91
2023-03-27T05:17:00.782Z,100064.69
2023-03-27T05:19:49.290Z,100073.50
2023-03-27T05:22:39.122Z,100070.31
2023-03-27T05:25:27.742Z,100092.06
2023-03-27T05:28:16.333Z,100100.00
2023-03-27T05:31:05.272Z,100098.06
2023-03-27T05:33:54.002Z,100103.69
2023-03-27T05:36:42.880Z,100106.31
2023-03-27T05:39:32.724Z,100109.13
2023-03-27T05:42:21.249Z,100115.41
2023-03-27T05:45:10.575Z,100125.09
2023-03-27T05:48:00.254Z,100135.38
2023-03-27T05:50:48.708Z,100138.72
2023-03-27T05:53:39.182Z,100151.31
2023-03-27T05:56:29.074Z,100149.97
2023-03-27T05:59:17.650Z,100163.59
2023-03-27T06:02:06.237Z,100153.66
2023-03-27T06:04:54.779Z,100164.75
2023-03-27T06:07:43.627Z,100185.00
2023-03-27T06:10:33.807Z,100085.66
2023-03-27T06:13:24.181Z,100188.16
2023-03-27T06:16:12.735Z,100201.91
2023-03-27T06:19:01.399Z,100198.97
2023-03-27T06:21:49.886Z,100213.41
2023-03-27T06:24:42.569Z,100212.63
2023-03-27T06:27:32.066Z,100230.09
2023-03-27T06:30:23.526Z,100236.91
2023-03-27T06:33:12.083Z,100236.38
2023-03-27T06:36:01.329Z,100245.53
2023-03-27T06:38:49.894Z,100244.03
2023-03-27T06:41:38.452Z,100261.47
2023-03-27T06:44:26.876Z,100265.31
2023-03-27T06:47:16.771Z,100281.25
2023-03-27T06:50:06.640Z,100290.59
2023-03-27T06:52:55.231Z,100286.28
2023-03-27T06:55:44.587Z,100291.75
2023-03-27T06:58:33.125Z,100307.22
2023-03-27T07:01:21.644Z,100301.56
2023-03-27T07:04:12.297Z,100309.88
2023-03-27T07:07:00.944Z,100315.03
2023-03-27T07:09:50.070Z,100321.59
2023-03-27T07:12:40.025Z,100334.13
2023-03-27T07:15:28.536Z,100336.88
2023-03-27T07:18:17.553Z,100336.72
2023-03-27T07:21:08.590Z,100328.06
2023-03-27T07:23:57.089Z,100353.13
2023-03-27T07:26:45.671Z,100352.63
2023-03-27T07:29:34.190Z,100364.56
2023-03-27T07:32:36.400Z,100368.41
2023-03-27T07:35:25.858Z,100373.66
2023-03-27T07:38:16.589Z,100371.59
2023-03-27T07:41:06.886Z,100383.88
2023-03-27T07:43:55.488Z,100391.72
2023-03-27T07:46:44.495Z,100403.00
2023-03-27T07:49:40.210Z,100404.66
2023-03-27T07:52:29.380Z,100400.31
2023-03-27T07:55:19.841Z,100419.69
2023-03-27T07:58:09.061Z,100389.88
2023-03-27T08:01:01.931Z,100416.94
2023-03-27T08:03:52.078Z,100428.38
2023-03-27T08:06:40.706Z,100426.88
2023-03-27T08:09:29.196Z,100427.41
2023-03-27T08:12:19.658Z,100431.84
2023-03-27T08:15:09.373Z,100430.53
2023-03-27T08:18:00.444Z,100432.31
2023-03-27T08:20:49.682Z,100435.75
2023-03-27T08:23:38.728Z,100430.03
2023-03-27T08:26:27.712Z,100447.84
2023-03-27T08:29:17.886Z,100450.09
2023-03-27T08:32:09.840Z,100450.81
2023-03-27T08:34:58.371Z,100458.97
2023-03-27T08:37:47.073Z,100473.63
2023-03-27T08:40:37.058Z,100468.81
2023-03-27T08:43:27.366Z,100475.63
2023-03-27T08:46:21.157Z,100443.22
2023-03-27T08:49:12.858Z,100480.69
2023-03-27T08:52:02.588Z,100476.78
2023-03-27T08:54:58.220Z,100457.00
2023-03-27T08:57:47.062Z,100491.81
2023-03-27T09:00:39.549Z,100494.59
2023-03-27T09:03:32.066Z,100485.47
2023-03-27T09:06:26.486Z,100489.50
2023-03-27T09:09:24.202Z,100488.47
2023-03-27T09:12:19.944Z,100497.66
2023-03-27T09:15:12.857Z,100503.25
2023-03-27T09:18:04.156Z,100496.97
2023-03-27T09:20:56.647Z,100492.59
2023-03-27T09:23:46.337Z,100502.22
2023-03-27T09:26:37.644Z,100508.16
2023-03-27T09:29:29.904Z,100485.06
2023-03-27T09:32:18.442Z,100513.25
2023-03-27T09:35:07.294Z,100514.97
2023-03-27T09:38:03.710Z,100510.81
2023-03-27T09:40:56.268Z,100504.59
2023-03-27T09:43:55.549Z,100513.66
2023-03-27T09:46:45.792Z,100503.88
2023-03-27T09:49:35.798Z,100521.31
2023-03-27T09:52:35.706Z,100529.06
2023-03-27T09:55:30.629Z,100514.19
2023-03-27T09:58:32.442Z,100522.94
2023-03-27T10:01:29.293Z,100504.75
2023-03-27T10:04:19.290Z,100530.50
2023-03-27T10:07:10.241Z,100531.47
2023-03-27T10:10:11.602Z,100530.94
2023-03-27T10:13:03.362Z,100536.19
2023-03-27T10:15:51.954Z,100534.88
2023-03-27T10:18:44.147Z,100531.09
2023-03-27T10:21:33.804Z,100524.53
2023-03-27T10:24:25.023Z,100534.97
2023-03-27T10:27:20.028Z,100541.59
2023-03-27T10:30:28.558Z,100547.50
2023-03-27T10:33:30.362Z,100482.22
2023-03-27T10:36:18.951Z,100555.19
2023-03-27T10:39:11.941Z,100542.84
2023-03-27T10:42:04.019Z,100549.75
2023-03-27T10:44:54.504Z,100548.75
2023-03-27T10:47:47.334Z,100478.44
2023-03-27T10:50:41.594Z,100548.72
2023-03-27T10:53:37.311Z,100540.44
2023-03-27T10:56:28.475Z,100545.63
2023-03-27T10:59:28.079Z,100541.38
2023-03-27T11:02:28.579Z,100538.66
2023-03-27T11:05:21.824Z,100518.31
2023-03-27T11:08:14.512Z,100555.44
2023-03-27T11:11:08.427Z,100553.97
2023-03-27T11:14:02.361Z,100556.78
2023-03-27T11:16:52.733Z,100557.47
2023-03-27T11:19:45.793Z,100559.97
2023-03-27T11:22:40.665Z,100558.97
2023-03-27T11:25:36.799Z,100564.50
2023-03-27T11:28:27.023Z,100560.88
2023-03-27T11:31:23.754Z,100569.13
2023-03-27T11:34:29.476Z,100570.97
2023-03-27T11:37:21.488Z,100569.31
2023-03-27T11:40:18.199Z,100533.16
2023-03-27T11:43:07.107Z,100574.28
2023-03-27T11:46:02.548Z,100581.03
2023-03-27T11:49:02.894Z,100575.75
2023-03-27T11:51:59.075Z,100574.91
2023-03-27T11:54:55.878Z,100582.13
2023-03-27T11:57:56.762Z,100581.84
2023-03-27T12:00:50.018Z,100575.06
2023-03-27T12:04:03.582Z,100575.19
2023-03-27T12:07:04.004Z,100589.59
2023-03-27T12:10:03.428Z,100588.66
2023-03-27T12:13:18.211Z,100593.88
2023-03-27T12:16:25.186Z,100586.22
2023-03-27T12:19:30.007Z,100591.75
2023-03-27T12:22:31.332Z,100586.81
2023-03-27T12:25:39.843Z,100592.28
2023-03-27T12:28:41.147Z,100590.25
2023-03-27T12:31:42.289Z,100586.00
2023-03-27T12:34:40.186Z,100585.56
2023-03-27T12:37:31.097Z,100602.19
2023-03-27T12:40:39.020Z,100618.88
2023-03-27T12:43:31.491Z,100629.06
2023-03-27T12:46:33.081Z,100624.41
2023-03-27T12:49:57.844Z,100621.97
2023-03-27T12:52:46.447Z,100624.38
2023-03-27T12:55:37.174Z,100630.34
2023-03-27T12:58:33.266Z,100645.59
2023-03-27T13:01:36.306Z,100645.00
2023-03-27T13:04:54.786Z,100590.25
2023-03-27T13:07:49.005Z,100641.53
2023-03-27T13:10:46.391Z,100636.00
2023-03-27T13:13:57.940Z,100636.28
2023-03-27T13:17:11.229Z,100635.06
2023-03-27T13:20:09.877Z,100625.78
2023-03-27T13:23:08.227Z,100640.19
2023-03-27T13:26:08.625Z,100634.66
2023-03-27T13:28:57.813Z,100633.22
2023-03-27T13:32:06.082Z,100630.06
2023-03-27T13:35:05.446Z,100637.16
2023-03-27T13:37:58.926Z,100630.06
2023-03-27T13:40:49.704Z,100627.13
2023-03-27T13:43:38.650Z,100633.53
2023-03-27T13:46:29.186Z,100637.16
2023-03-27T13:49:23.421Z,100642.00
2023-03-27T13:52:28.651Z,100625.06
2023-03-27T13:55:34.584Z,100629.59
2023-03-27T13:58:36.018Z,100620.94
2023-03-27T14:01:43.264Z,100631.81
2023-03-27T14:05:09.193Z,100625.63
2023-03-27T14:08:30.406Z,100630.25
2023-03-27T14:11:38.055Z,100629.94
2023-03-27T14:14:45.877Z,100607.44
2023-03-27T14:17:46.099Z,100622.59
2023-03-27T14:20:40.268Z,100571.16
2023-03-27T14:23:32.416Z,100629.75
2023-03-27T14:26:24.626Z,100631.84
2023-03-27T14:29:15.406Z,100642.38
2023-03-27T14:32:05.400Z,100656.53
2023-03-27T14:34:54.989Z,100670.16
2023-03-27T14:37:44.961Z,100669.06
2023-03-27T14:40:35.207Z,100683.91
2023-03-27T14:43:24.068Z,100688.69
2023-03-27T14:46:13.256Z,100688.28
2023-03-27T14:49:02.060Z,100674.72
2023-03-27T14:51:53.552Z,100676.31
2023-03-27T14:54:54.735Z,100669.28
2023-03-27T14:57:44.532Z,100664.63
2023-03-27T15:00:35.077Z,100667.63
2023-03-27T15:03:26.415Z,100665.28
2023-03-27T15:06:16.984Z,100672.41
2023-03-27T15:09:14.258Z,100663.16
2023-03-27T15:12:04.220Z,100644.53
2023-03-27T15:14:53.771Z,100663.47
2023-03-27T15:17:44.793Z,100668.59
2023-03-27T15:20:34.490Z,100670.97
2023-03-27T15:23:25.058Z,100664.66
2023-03-27T15:26:18.452Z,100674.53
2023-03-27T15:29:13.754Z,100642.19
2023-03-27T15:32:08.778Z,100687.19
2023-03-27T15:34:59.650Z,100687.88
2023-03-27T15:37:48.987Z,100686.88
2023-03-27T15:40:41.785Z,100682.03
2023-03-27T15:43:31.814Z,100680.03
2023-03-27T15:46:26.099Z,100659.75
2023-03-27T15:49:23.657Z,100656.28
2023-03-27T15:52:33.694Z,100644.63
2023-03-27T15:55:42.195Z,100641.75
2023-03-27T15:58:35.856Z,100638.78
2023-03-27T16:01:30.041Z,100634.09
2023-03-27T16:04:20.246Z,100649.59
2023-03-27T16:07:11.291Z,100668.78
2023-03-27T16:10:02.929Z,100669.59
2023-03-27T16:12:52.949Z,100674.59
2023-03-27T16:15:43.636Z,100676.78
2023-03-27T16:18:36.598Z,100671.78
2023-03-27T16:21:27.626Z,100676.44
2023-03-27T16:24:16.110Z,100681.75
2023-03-27T16:27:04.738Z,100681.44
2023-03-27T16:29:53.885Z,100680.44
2023-03-27T16:32:42.464Z,100667.25
2023-03-27T16:35:33.778Z,100577.97
2023-03-27T16:38:22.721Z,100665.59
2023-03-27T16:41:13.818Z,100674.59
2023-03-27T16:44:02.305Z,100669.44
2023-03-27T16:46:51.199Z,100672.09
2023-03-27T16:49:40.134Z,100582.47
2023-03-27T16:52:29.959Z,100676.41
2023-03-27T16:55:18.565Z,100686.41
2023-03-27T16:58:07.051Z,100693.72
2023-03-27T17:00:55.729Z,100701.09
2023-03-27T17:03:44.292Z,100698.91
2023-03-27T17:06:33.297Z,100702.75
2023-03-27T17:09:23.425Z,100698.91
2023-03-27T17:12:12.077Z,100702.59
2023-03-27T17:15:00.694Z,100709.44
2023-03-27T17:17:50.054Z,100705.09
2023-03-27T17:20:38.811Z,100720.94
2023-03-27T17:23:27.363Z,100725.59
2023-03-27T17:26:23.737Z,100728.78
2023-03-27T17:29:12.229Z,100738.56
2023-03-27T17:32:02.094Z,100741.88
2023-03-27T17:34:52.057Z,100740.25
2023-03-27T17:37:41.351Z,100751.72
2023-03-27T17:40:29.845Z,100745.69
2023-03-27T17:43:19.781Z,100744.19
2023-03-27T17:46:08.504Z,100760.84
2023-03-27T17:48:57.998Z,100760.16
2023-03-27T17:51:46.488Z,100763.94
2023-03-27T17:54:35.216Z,100769.94
2023-03-27T17:57:23.916Z,100772.25
2023-03-27T18:00:15.225Z,100776.56
2023-03-27T18:03:04.185Z,100778.56
2023-03-27T18:05:53.130Z,100784.81
2023-03-27T18:08:42.016Z,100786.13
2023-03-27T18:11:30.799Z,100784.97
2023-03-27T18:14:19.286Z,100797.63
2023-03-27T18:17:09.124Z,100800.44
2023-03-27T18:19:57.555Z,100803.41
2023-03-27T18:22:47.041Z,100803.91
2023-03-27T18:25:35.580Z,100796.38
2023-03-27T18:28:24.731Z,100812.69
2023-03-27T18:31:13.481Z,100808.03
2023-03-27T18:34:03.426Z,100818.53
2023-03-27T18:36:52.699Z,100832.56
2023-03-27T18:39:41.562Z,100825.81
2023-03-27T18:42:30.336Z,100835.63
2023-03-27T18:45:18.871Z,100841.88
2023-03-27T18:48:08.310Z,100846.03
2023-03-27T18:50:59.458Z,100857.63
2023-03-27T18:53:48.066Z,100860.75
2023-03-27T18:56:39.344Z,100860.06
2023-03-27T18:59:27.847Z,100873.31
2023-03-27T19:02:17.114Z,100868.28
2023-03-27T19:05:06.136Z,100855.94
2023-03-27T19:07:59.223Z,100878.22
2023-03-27T19:10:47.706Z,100886.53
2023-03-27T19:13:36.796Z,100887.00
2023-03-27T19:16:25.267Z,100885.56
2023-03-27T19:19:13.895Z,100887.72
2023-03-27T19:22:02.564Z,100899.34
2023-03-27T19:24:52.371Z,100897.84
2023-03-27T19:27:40.881Z,100863.94
2023-03-27T19:30:29.995Z,100899.00
2023-03-27T19:33:18.458Z,100915.47
2023-03-27T19:36:08.297Z,100915.31
2023-03-27T19:38:56.874Z,100916.66
2023-03-27T19:41:48.492Z,100917.00
2023-03-27T19:44:38.009Z,100917.53
2023-03-27T19:47:26.616Z,100913.66
2023-03-27T19:50:16.066Z,100911.44
2023-03-27T19:53:08.720Z,100922.41
2023-03-27T19:55:58.880Z,100908.56
2023-03-27T19:58:48.801Z,100920.59
2023-03-27T20:01:37.927Z,100925.75
2023-03-27T20:04:26.531Z,100934.09
2023-03-27T20:07:15.325Z,100932.44
2023-03-27T20:10:04.044Z,100933.94
2023-03-27T20:12:52.867Z,100921.56
2023-03-27T20:15:43.128Z,100936.09
2023-03-27T20:18:34.122Z,100941.13
2023-03-27T20:21:24.660Z,100947.94
2023-03-27T20:24:20.128Z,100954.13
2023-03-27T20:27:08.649Z,100952.28
2023-03-27T20:29:57.633Z,100953.28
2023-03-27T20:32:47.539Z,100955.63
2023-03-27T20:35:36.915Z,100961.63
2023-03-27T20:38:28.664Z,100952.97
2023-03-27T20:41:17.278Z,100950.06
2023-03-27T20:44:15.567Z,100957.91
2023-03-27T20:47:10.914Z,100953.50
2023-03-27T20:50:03.563Z,100972.13
2023-03-27T20:52:52.018Z,100967.72
2023-03-27T20:55:49.704Z,100961.16
2023-03-27T20:58:46.036Z,100962.06
2023-03-27T21:01:38.763Z,100969.53
2023-03-27T21:04:28.389Z,100939.19
2023-03-27T21:07:18.308Z,100975.22
2023-03-27T21:10:08.097Z,100978.31
2023-03-27T21:12:56.682Z,100953.00
2023-03-27T21:15:45.267Z,100972.00
2023-03-27T21:18:33.988Z,100965.91
2023-03-27T21:21:22.553Z,100979.34
2023-03-27T21:24:13.185Z,100955.66
2023-03-27T21:27:01.958Z,100986.94
2023-03-27T21:29:50.737Z,100988.34
2023-03-27T21:32:39.287Z,101000.72
2023-03-27T21:35:27.804Z,100997.50
2023-03-27T21:38:17.281Z,100999.16
2023-03-27T21:41:07.954Z,101001.00
2023-03-27T21:43:56.401Z,101001.44
2023-03-27T21:46:44.963Z,100995.19
2023-03-27T21:49:33.473Z,100991.69
2023-03-27T21:52:22.205Z,101002.44
2023-03-27T21:55:10.819Z,101005.41
2023-03-27T21:58:00.720Z,101004.97
2023-03-27T22:00:49.288Z,100998.03
2023-03-27T22:03:37.876Z,101005.31
2023-03-27T22:06:28.788Z,101005.03
2023-03-27T22:09:17.892Z,101000.44
2023-03-27T22:12:07.013Z,101015.50
2023-03-27T22:14:56.852Z,101015.66
2023-03-27T22:17:46.267Z,101021.69
2023-03-27T22:20:34.813Z,100997.53
2023-03-27T22:23:23.297Z,101022.56
2023-03-27T22:26:12.009Z,101015.28
2023-03-27T22:29:00.672Z,101023.13
2023-03-27T22:31:50.537Z,101029.97
2023-03-27T22:34:39.013Z,101025.63
2023-03-27T22:37:27.466Z,101026.19
2023-03-27T22:40:16.253Z,101035.28
2023-03-27T22:43:04.721Z,101020.88
2023-03-27T22:45:53.554Z,101039.63
2023-03-27T22:48:43.602Z,101040.03
2023-03-27T22:51:32.390Z,101049.41
2023-03-27T22:54:20.973Z,101034.84
2023-03-27T22:57:10.035Z,101057.38
2023-03-27T22:59:58.650Z,101058.19
2023-03-27T23:02:47.251Z,101054.41
2023-03-27T23:05:40.053Z,101054.84
2023-03-27T23:08:28.959Z,101067.00
2023-03-27T23:11:18.285Z,101065.72
2023-03-27T23:14:07.012Z,101075.53
2023-03-27T23:16:55.720Z,101074.94
2023-03-27T23:19:44.341Z,101075.22
2023-03-27T23:22:34.166Z,101079.13
2023-03-27T23:25:22.730Z,101085.53
2023-03-27T23:28:11.234Z,101088.19
2023-03-27T23:31:01.371Z,101075.09
2023-03-27T23:33:51.546Z,101083.88
2023-03-27T23:36:40.361Z,101085.97
2023-03-27T23:39:30.309Z,101092.94
2023-03-27T23:42:18.829Z,101068.75
2023-03-27T23:45:08.557Z,101064.56
2023-03-27T23:47:57.037Z,101098.13
2023-03-27T23:50:45.777Z,101103.47
2023-03-27T23:53:34.435Z,101110.44
2023-03-27T23:56:24.289Z,101103.72
2023-03-27T23:59:12.957Z,101069.31
